Darstellungsparameter: Aktuell verwendete Einstellungen:
Skalierung der Graphiken ... ?
xyx+y,   Skalierungsfaktor:      Skalierung: Modus: x, Faktor: 1
Darstellungszeitraum ... ?
Vom - - bis: - -   Zeitraum: 23.01.2021 - 23.01.2021
Min/Max/Avg-Anzeige ... ?
Zeige MMA aktuell
Zeige MMA Monat
Zeige MMA alles
Zeige --A aktuell
Zeige --A Monat
Zeige --A alles
Keine MMA-Anzeige
MMA:
Keine MMA-Graphiken
MMA-Basis: 23.01.2021 - 23.01.2021
Quicknavigation für Darstellung... ?
Tage:      1T, 2T, 3T, 5T -1T -2T -3T -5T +1T +2T +3T +5T
Wochen: 1W, 2W, 3W -1W -2W -3W +1W +2W +3W
Monate: 1M, 3M, 6M -1M -3M -6M +1M +3M +6M
Jahre:    1J, 3J, 5J, 10J -1J -3J -5J -10J +1J +3J +5J +10J
Nutze für die Darstellung ... ?
Originaldaten oder Mittelwerte auf ...
Stundenbasis Tagesbasis Wochenbasis
Monatsbasis Jahresbasis      Datenbasis: Original-Daten
Darstellen als:
Statistik (Auto) Statistik J:M      Darstellung:

Der gewünschte Datumsbereich war nicht gültig/verfügbar und wurde korrigiert....
Das angegebene Enddatum (07.06.2022 23:59:59) liegt in der Zukunft.
Das angegebene Startdatum (01.06.2022 00:00:00) liegt in der Zukunft.


Zur Graphik,    zurück zur Übersicht aller Sensoren.
 
Tabellarische Datenbersicht: ?
 
Sensor: Nr:Datum:Temp:Abs-Feuchte:Windchill:Wind:
Aussen-T/F 1 23-01-2021 01:00:00 2.6 C 5.56 g/m*3 2.6 C 4.8 km/h
2 23-01-2021 01:05:00 2.6 C 5.56 g/m*3 2.6 C 0 km/h
3 23-01-2021 01:10:00 2.6 C 5.56 g/m*3 2.6 C 0 km/h
4 23-01-2021 01:15:00 2.6 C 5.56 g/m*3 2.6 C 1.6 km/h
5 23-01-2021 01:20:00 2.6 C 5.56 g/m*3 2.6 C 0 km/h
6 23-01-2021 01:25:00 2.5 C 5.52 g/m*3 2.5 C 0 km/h
7 23-01-2021 01:30:00 2.4 C 5.48 g/m*3 2.4 C 0 km/h
8 23-01-2021 01:35:00 2.4 C 5.48 g/m*3 2.4 C 0 km/h
9 23-01-2021 01:40:00 2.4 C 5.48 g/m*3 2.4 C 3.2 km/h
10 23-01-2021 01:45:00 2.4 C 5.48 g/m*3 2.4 C 1.6 km/h
11 23-01-2021 01:50:00 2.4 C 5.48 g/m*3 2.4 C 3.2 km/h
12 23-01-2021 01:55:00 2.4 C 5.48 g/m*3 2.4 C 3.2 km/h
13 23-01-2021 02:00:00 2.4 C 5.48 g/m*3 2.4 C 1.6 km/h
14 23-01-2021 02:05:00 2.4 C 5.48 g/m*3 2.4 C 0 km/h
15 23-01-2021 02:10:00 2.4 C 5.48 g/m*3 2.4 C 3.2 km/h
16 23-01-2021 02:15:00 2.3 C 5.44 g/m*3 2.3 C 0 km/h
17 23-01-2021 02:20:00 2.3 C 5.44 g/m*3 2.3 C 0 km/h
18 23-01-2021 02:25:00 2.3 C 5.44 g/m*3 2.3 C 0 km/h
19 23-01-2021 02:30:00 2.3 C 5.44 g/m*3 2.3 C 1.6 km/h
20 23-01-2021 02:35:00 2.2 C 5.41 g/m*3 2.2 C 1.6 km/h
21 23-01-2021 02:40:00 2.3 C 5.44 g/m*3 2.3 C 3.2 km/h
22 23-01-2021 02:45:00 2.3 C 5.44 g/m*3 2.3 C 3.2 km/h
23 23-01-2021 02:50:00 2.3 C 5.44 g/m*3 2.3 C 3.2 km/h
24 23-01-2021 02:55:00 2.3 C 5.44 g/m*3 2.3 C 1.6 km/h
25 23-01-2021 03:00:00 2.3 C 5.44 g/m*3 2.3 C 3.2 km/h
Sensor: Nr:Datum:Temp:Abs-Feuchte:Windchill:Wind:
Aussen-T/F 26 23-01-2021 03:05:00 2.3 C 5.44 g/m*3 2.3 C 3.2 km/h
27 23-01-2021 03:10:00 2.3 C 5.44 g/m*3 2.3 C 3.2 km/h
28 23-01-2021 03:15:00 2.3 C 5.44 g/m*3 2.3 C 3.2 km/h
29 23-01-2021 03:20:00 2.2 C 5.41 g/m*3 2.2 C 3.2 km/h
30 23-01-2021 03:25:00 2.3 C 5.44 g/m*3 2.3 C 4.8 km/h
31 23-01-2021 03:30:00 2.3 C 5.44 g/m*3 2.3 C 4.8 km/h
32 23-01-2021 03:35:00 2.3 C 5.44 g/m*3 0.47 C 6.4 km/h
33 23-01-2021 03:40:00 2.4 C 5.48 g/m*3 0.59 C 6.4 km/h
34 23-01-2021 03:45:00 2.5 C 5.58 g/m*3 0.17 C 8.1 km/h
35 23-01-2021 03:50:00 2.5 C 5.52 g/m*3 0.71 C 6.4 km/h
36 23-01-2021 03:55:00 2.5 C 5.52 g/m*3 -0.26 C 9.7 km/h
37 23-01-2021 04:00:00 2.5 C 5.52 g/m*3 2.5 C 4.8 km/h
38 23-01-2021 04:05:00 2.4 C 5.48 g/m*3 0.05 C 8.1 km/h
39 23-01-2021 04:10:00 2.5 C 5.52 g/m*3 0.71 C 6.4 km/h
40 23-01-2021 04:15:00 2.5 C 5.52 g/m*3 -0.26 C 9.7 km/h
41 23-01-2021 04:20:00 2.6 C 5.56 g/m*3 -0.14 C 9.7 km/h
42 23-01-2021 04:25:00 2.6 C 5.56 g/m*3 0.82 C 6.4 km/h
43 23-01-2021 04:30:00 2.6 C 5.56 g/m*3 2.6 C 3.2 km/h
44 23-01-2021 04:35:00 2.7 C 5.59 g/m*3 -0.02 C 9.7 km/h
45 23-01-2021 04:40:00 2.7 C 5.59 g/m*3 0.4 C 8.1 km/h
46 23-01-2021 04:45:00 2.7 C 5.59 g/m*3 -0.02 C 9.7 km/h
47 23-01-2021 04:50:00 2.7 C 5.59 g/m*3 0.4 C 8.1 km/h
48 23-01-2021 04:55:00 2.8 C 5.63 g/m*3 0.52 C 8.1 km/h
49 23-01-2021 05:00:00 2.8 C 5.63 g/m*3 0.1 C 9.7 km/h
50 23-01-2021 05:05:00 2.9 C 5.67 g/m*3 2.9 C 4.8 km/h
Sensor: Nr:Datum:Temp:Abs-Feuchte:Windchill:Wind:
Aussen-T/F 51 23-01-2021 05:10:00 2.9 C 5.67 g/m*3 -0.46 C 12.9 km/h
52 23-01-2021 05:15:00 2.9 C 5.67 g/m*3 0.22 C 9.7 km/h
53 23-01-2021 05:20:00 3 C 5.71 g/m*3 0.34 C 9.7 km/h
54 23-01-2021 05:25:00 3.1 C 5.75 g/m*3 3.1 C 4.8 km/h
55 23-01-2021 05:30:00 3.1 C 5.75 g/m*3 1.4 C 6.4 km/h
56 23-01-2021 05:35:00 3.1 C 5.75 g/m*3 3.1 C 3.2 km/h
57 23-01-2021 05:40:00 3.1 C 5.69 g/m*3 3.1 C 4.8 km/h
58 23-01-2021 05:45:00 3.1 C 5.75 g/m*3 3.1 C 3.2 km/h
59 23-01-2021 05:50:00 3.1 C 5.69 g/m*3 3.1 C 3.2 km/h
60 23-01-2021 05:55:00 3 C 5.65 g/m*3 3 C 1.6 km/h
61 23-01-2021 06:00:00 2.9 C 5.61 g/m*3 2.9 C 1.6 km/h
62 23-01-2021 06:05:00 2.8 C 5.57 g/m*3 2.8 C 1.6 km/h
63 23-01-2021 06:10:00 2.8 C 5.57 g/m*3 2.8 C 0 km/h
64 23-01-2021 06:15:00 2.7 C 5.54 g/m*3 2.7 C 1.6 km/h
65 23-01-2021 06:20:00 2.7 C 5.54 g/m*3 2.7 C 0 km/h
66 23-01-2021 06:25:00 2.7 C 5.54 g/m*3 2.7 C 1.6 km/h
67 23-01-2021 06:30:00 2.8 C 5.63 g/m*3 2.8 C 4.8 km/h
68 23-01-2021 06:35:00 2.9 C 5.67 g/m*3 1.17 C 6.4 km/h
69 23-01-2021 06:40:00 3.1 C 5.75 g/m*3 3.1 C 1.6 km/h
70 23-01-2021 06:45:00 3.1 C 5.69 g/m*3 3.1 C 3.2 km/h
71 23-01-2021 06:50:00 3.2 C 5.79 g/m*3 3.2 C 1.6 km/h
72 23-01-2021 06:55:00 3.2 C 5.72 g/m*3 3.2 C 0 km/h
73 23-01-2021 07:00:00 3.2 C 5.72 g/m*3 3.2 C 0 km/h
74 23-01-2021 07:05:00 3.2 C 5.72 g/m*3 3.2 C 0 km/h
75 23-01-2021 07:10:00 3.2 C 5.72 g/m*3 3.2 C 1.6 km/h
Sensor: Nr:Datum:Temp:Abs-Feuchte:Windchill:Wind:
Aussen-T/F 76 23-01-2021 07:15:00 3.2 C 5.72 g/m*3 3.2 C 0 km/h
77 23-01-2021 07:20:00 3.2 C 5.72 g/m*3 3.2 C 0 km/h
78 23-01-2021 07:25:00 3.2 C 5.72 g/m*3 3.2 C 0 km/h
79 23-01-2021 07:30:00 3.2 C 5.72 g/m*3 3.2 C 0 km/h
80 23-01-2021 07:35:00 3.2 C 5.72 g/m*3 3.2 C 0 km/h
81 23-01-2021 07:40:00 3.2 C 5.72 g/m*3 3.2 C 0 km/h
82 23-01-2021 07:45:00 3.2 C 5.72 g/m*3 3.2 C 0 km/h
83 23-01-2021 07:50:00 3.2 C 5.72 g/m*3 3.2 C 0 km/h
84 23-01-2021 07:55:00 3.2 C 5.72 g/m*3 3.2 C 0 km/h
85 23-01-2021 08:00:00 3.2 C 5.72 g/m*3 3.2 C 0 km/h
86 23-01-2021 08:05:00 3.2 C 5.79 g/m*3 3.2 C 0 km/h
87 23-01-2021 08:10:00 3.2 C 5.79 g/m*3 3.2 C 0 km/h
88 23-01-2021 08:15:00 3.2 C 5.79 g/m*3 3.2 C 0 km/h
89 23-01-2021 08:20:00 3.2 C 5.79 g/m*3 3.2 C 0 km/h
90 23-01-2021 08:25:00 3.2 C 5.72 g/m*3 3.2 C 1.6 km/h
91 23-01-2021 08:30:00 3.3 C 5.76 g/m*3 3.3 C 3.2 km/h
92 23-01-2021 08:35:00 3.3 C 5.76 g/m*3 3.3 C 1.6 km/h
93 23-01-2021 08:40:00 3.3 C 5.76 g/m*3 3.3 C 3.2 km/h
94 23-01-2021 08:45:00 3.4 C 5.8 g/m*3 3.4 C 3.2 km/h
95 23-01-2021 08:50:00 3.4 C 5.8 g/m*3 3.4 C 1.6 km/h
96 23-01-2021 08:55:00 3.5 C 5.84 g/m*3 3.5 C 3.2 km/h
97 23-01-2021 09:00:00 3.6 C 5.88 g/m*3 3.6 C 3.2 km/h
98 23-01-2021 09:05:00 3.6 C 5.88 g/m*3 3.6 C 4.8 km/h
99 23-01-2021 09:10:00 3.6 C 5.88 g/m*3 3.6 C 0 km/h
100 23-01-2021 09:15:00 3.7 C 5.92 g/m*3 3.7 C 0 km/h
Sensor: Nr:Datum:Temp:Abs-Feuchte:Windchill:Wind:
Aussen-T/F 101 23-01-2021 09:20:00 3.7 C 5.92 g/m*3 3.7 C 0 km/h
102 23-01-2021 09:25:00 3.7 C 5.92 g/m*3 3.7 C 0 km/h
103 23-01-2021 09:30:00 3.7 C 5.92 g/m*3 3.7 C 0 km/h
104 23-01-2021 09:35:00 3.8 C 5.96 g/m*3 3.8 C 0 km/h
105 23-01-2021 09:40:00 3.8 C 5.96 g/m*3 3.8 C 0 km/h
106 23-01-2021 09:45:00 3.8 C 5.96 g/m*3 3.8 C 0 km/h
107 23-01-2021 09:50:00 3.9 C 6 g/m*3 3.9 C 0 km/h
108 23-01-2021 09:55:00 3.9 C 6 g/m*3 3.9 C 0 km/h
109 23-01-2021 10:00:00 3.8 C 5.96 g/m*3 3.8 C 0 km/h
110 23-01-2021 10:05:00 3.8 C 5.9 g/m*3 3.8 C 0 km/h
111 23-01-2021 10:10:00 3.8 C 5.9 g/m*3 3.8 C 3.2 km/h
112 23-01-2021 10:15:00 3.8 C 5.96 g/m*3 3.8 C 0 km/h
113 23-01-2021 10:20:00 3.8 C 5.96 g/m*3 3.8 C 1.6 km/h
114 23-01-2021 10:25:00 3.9 C 6 g/m*3 3.9 C 0 km/h
115 23-01-2021 10:30:00 4 C 6.04 g/m*3 4 C 0 km/h
116 23-01-2021 10:35:00 4.1 C 6.08 g/m*3 4.1 C 0 km/h
117 23-01-2021 10:40:00 4.1 C 6.08 g/m*3 4.1 C 0 km/h
118 23-01-2021 10:45:00 4.2 C 6.12 g/m*3 4.2 C 0 km/h
119 23-01-2021 10:50:00 4.3 C 6.16 g/m*3 4.3 C 0 km/h
120 23-01-2021 10:55:00 4.4 C 6.2 g/m*3 4.4 C 0 km/h
121 23-01-2021 11:00:00 4.6 C 6.29 g/m*3 4.6 C 1.6 km/h
122 23-01-2021 11:05:00 4.6 C 6.29 g/m*3 4.6 C 3.2 km/h
123 23-01-2021 11:10:00 4.7 C 6.33 g/m*3 4.7 C 0 km/h
124 23-01-2021 11:15:00 4.7 C 6.26 g/m*3 4.7 C 1.6 km/h
125 23-01-2021 11:20:00 4.8 C 6.3 g/m*3 4.8 C 1.6 km/h
Sensor: Nr:Datum:Temp:Abs-Feuchte:Windchill:Wind:
Aussen-T/F 126 23-01-2021 11:25:00 4.9 C 6.35 g/m*3 4.9 C 3.2 km/h
127 23-01-2021 11:30:00 4.9 C 6.28 g/m*3 3.48 C 6.4 km/h
128 23-01-2021 11:35:00 5 C 6.32 g/m*3 5 C 1.6 km/h
129 23-01-2021 11:40:00 5 C 6.32 g/m*3 5 C 4.8 km/h
130 23-01-2021 11:45:00 5 C 6.25 g/m*3 5 C 3.2 km/h
131 23-01-2021 11:50:00 5 C 6.18 g/m*3 3.11 C 8.1 km/h
132 23-01-2021 11:55:00 5.1 C 6.22 g/m*3 2.84 C 9.7 km/h
133 23-01-2021 12:00:00 5.1 C 6.22 g/m*3 3.71 C 6.4 km/h
134 23-01-2021 12:05:00 5.1 C 6.16 g/m*3 2.84 C 9.7 km/h
135 23-01-2021 12:10:00 5.2 C 6.13 g/m*3 3.34 C 8.1 km/h
136 23-01-2021 12:15:00 5.2 C 6.13 g/m*3 5.2 C 4.8 km/h
137 23-01-2021 12:20:00 5.3 C 6.17 g/m*3 5.3 C 4.8 km/h
138 23-01-2021 12:25:00 5.3 C 6.24 g/m*3 5.3 C 1.6 km/h
139 23-01-2021 12:30:00 5.3 C 6.24 g/m*3 5.3 C 1.6 km/h
140 23-01-2021 12:35:00 5.4 C 6.21 g/m*3 4.06 C 6.4 km/h
141 23-01-2021 12:40:00 5.4 C 6.21 g/m*3 4.06 C 6.4 km/h
142 23-01-2021 12:45:00 5.6 C 6.29 g/m*3 4.29 C 6.4 km/h
143 23-01-2021 12:50:00 5.6 C 6.22 g/m*3 2.83 C 12.9 km/h
144 23-01-2021 12:55:00 5.7 C 6.26 g/m*3 4.4 C 6.4 km/h
145 23-01-2021 13:00:00 5.8 C 6.23 g/m*3 4.52 C 6.4 km/h
146 23-01-2021 13:05:00 5.8 C 6.16 g/m*3 4.52 C 6.4 km/h
147 23-01-2021 13:10:00 5.8 C 6.16 g/m*3 4.05 C 8.1 km/h
148 23-01-2021 13:15:00 5.9 C 6.2 g/m*3 5.9 C 4.8 km/h
149 23-01-2021 13:20:00 5.9 C 6.2 g/m*3 5.9 C 1.6 km/h
150 23-01-2021 13:25:00 6 C 6.24 g/m*3 6 C 4.8 km/h
Sensor: Nr:Datum:Temp:Abs-Feuchte:Windchill:Wind:
Aussen-T/F 151 23-01-2021 13:30:00 6 C 6.17 g/m*3 6 C 1.6 km/h
152 23-01-2021 13:35:00 6 C 6.17 g/m*3 4.75 C 6.4 km/h
153 23-01-2021 13:40:00 6.1 C 6.28 g/m*3 6.1 C 0 km/h
154 23-01-2021 13:45:00 6.1 C 6.28 g/m*3 6.1 C 1.6 km/h
155 23-01-2021 13:50:00 6.1 C 6.28 g/m*3 6.1 C 0 km/h
156 23-01-2021 13:55:00 6.1 C 6.28 g/m*3 6.1 C 1.6 km/h
157 23-01-2021 14:00:00 6.1 C 6.28 g/m*3 6.1 C 0 km/h
158 23-01-2021 14:05:00 6.2 C 6.32 g/m*3 6.2 C 0 km/h
159 23-01-2021 14:10:00 6.2 C 6.32 g/m*3 6.2 C 1.6 km/h
160 23-01-2021 14:15:00 6.2 C 6.25 g/m*3 6.2 C 3.2 km/h
161 23-01-2021 14:20:00 6.2 C 6.32 g/m*3 6.2 C 0 km/h
162 23-01-2021 14:25:00 6.3 C 6.37 g/m*3 6.3 C 0 km/h
163 23-01-2021 14:30:00 6.3 C 6.37 g/m*3 6.3 C 0 km/h
164 23-01-2021 14:35:00 6.3 C 6.37 g/m*3 6.3 C 1.6 km/h
165 23-01-2021 14:40:00 6.3 C 6.29 g/m*3 6.3 C 3.2 km/h
166 23-01-2021 14:45:00 6.4 C 6.33 g/m*3 6.4 C 0 km/h
167 23-01-2021 14:50:00 6.4 C 6.33 g/m*3 6.4 C 1.6 km/h
168 23-01-2021 14:55:00 6.4 C 6.41 g/m*3 6.4 C 0 km/h
169 23-01-2021 15:00:00 6.4 C 6.41 g/m*3 6.4 C 0 km/h
170 23-01-2021 15:05:00 6.5 C 6.45 g/m*3 6.5 C 0 km/h
171 23-01-2021 15:10:00 6.4 C 6.26 g/m*3 5.21 C 6.4 km/h
172 23-01-2021 15:15:00 6.4 C 6.26 g/m*3 6.4 C 0 km/h
173 23-01-2021 15:20:00 6.4 C 6.26 g/m*3 6.4 C 1.6 km/h
174 23-01-2021 15:25:00 6.4 C 6.26 g/m*3 6.4 C 0 km/h

Legende:
   Min
   Max


Maximal/Minimal-Werte vom 23.01.2021 - 23.01.2021

Sensor Min Max Avg
Temp
(Aussen-T/F)
2.2 °C
23-01-2021  02:35:00
6.5 °C
23-01-2021  15:05:00
3.83 °C
Abs-Feuchte
(Aussen-T/F)
5.41 g/m*3
23-01-2021  02:35:00
6.45 g/m*3
23-01-2021  15:05:00
5.83 g/m*3
Windchill
(Aussen-T/F)
-0.46 C
23-01-2021  05:10:00
6.5 C
23-01-2021  15:05:00
3.38 C

Die Daten stammen von einer Davis Vantage Pro 2 Wetter-Station und werden unter Linux mit der Software wview2wettercgi und aufbereitet. Alle Angaben erfolgen ohne Gewähr für ihre Vollständigkeit oder Richtigkeit.
Kontakt: Rainer Krienke krienke@uni-koblenz.de . Meine Webseiten an der Uni Koblenz oder privat.
Version: $Revision: 0.78 $